Time;durP1;ratioP1;P1;durP2;ratioP2;P2;SDS_P1;SDS_P2;PMS_P1;PMS_P2;Temp;Humidity;BMP_temperature;BMP_pressure;BME280_temperature;BME280_humidity;BME280_pressure;Samples;Min_cycle;Max_cycle;Signal;HPM_P1;HPM_P2
2022/04/17 00:00:48;;;;;;;11.65;7.57;;;7.10;99.90;;;;;;4993345;28;20435;-74
2022/04/17 00:03:14;;;;;;;13.20;8.32;;;7.20;99.90;;;;;;5008910;28;20539;-74
2022/04/17 00:05:40;;;;;;;12.95;7.40;;;7.00;99.90;;;;;;5018935;28;20047;-74
2022/04/17 00:08:06;;;;;;;12.55;8.02;;;7.00;99.90;;;;;;4990916;28;20041;-74
2022/04/17 00:10:32;;;;;;;11.07;7.80;;;7.00;99.90;;;;;;4998011;28;20064;-74
2022/04/17 00:12:58;;;;;;;13.18;8.48;;;6.90;99.90;;;;;;5010633;28;20935;-74
2022/04/17 00:15:24;;;;;;;13.32;8.00;;;6.80;99.90;;;;;;5013294;28;20908;-73
2022/04/17 00:17:50;;;;;;;15.18;7.80;;;6.90;99.90;;;;;;4994003;28;20052;-74
2022/04/17 00:20:17;;;;;;;14.27;8.23;;;6.90;99.90;;;;;;5019459;28;20185;-74
2022/04/17 00:22:44;;;;;;;12.68;7.85;;;6.90;99.90;;;;;;5015747;28;20554;-73
2022/04/17 00:25:11;;;;;;;14.77;8.63;;;7.00;99.90;;;;;;5017418;28;20123;-74
2022/04/17 00:27:39;;;;;;;11.77;8.20;;;6.90;99.90;;;;;;5012617;28;20045;-73
2022/04/17 00:30:06;;;;;;;14.20;8.43;;;6.80;99.90;;;;;;5013688;28;20044;-74
2022/04/17 00:32:32;;;;;;;12.18;8.32;;;6.80;99.90;;;;;;5014444;28;20533;-73
2022/04/17 00:34:58;;;;;;;11.63;8.30;;;6.60;99.90;;;;;;5010607;28;20041;-74
2022/04/17 00:37:25;;;;;;;13.68;8.52;;;6.70;99.90;;;;;;4995633;28;20053;-74
2022/04/17 00:39:51;;;;;;;11.77;7.85;;;6.60;99.90;;;;;;5012342;28;20138;-73
2022/04/17 00:42:17;;;;;;;13.70;8.68;;;6.60;99.90;;;;;;4996580;28;20838;-74
2022/04/17 00:44:43;;;;;;;12.02;8.32;;;6.60;99.90;;;;;;5011235;28;20109;-74
2022/04/17 00:47:12;;;;;;;13.95;8.38;;;6.40;99.90;;;;;;5010502;28;20052;-74
2022/04/17 00:49:37;;;;;;;12.52;8.45;;;6.40;99.90;;;;;;5012594;28;20047;-74
2022/04/17 00:52:04;;;;;;;14.00;8.32;;;6.50;99.90;;;;;;5011469;28;20041;-73
2022/04/17 00:54:30;;;;;;;13.82;9.13;;;6.50;99.90;;;;;;5011827;28;20402;-74
2022/04/17 00:56:58;;;;;;;14.15;8.65;;;6.40;99.90;;;;;;5014907;28;20056;-74
2022/04/17 00:59:24;;;;;;;11.80;8.45;;;6.40;99.90;;;;;;5010832;28;20084;-73
2022/04/17 01:01:50;;;;;;;14.52;8.98;;;6.40;99.90;;;;;;5010722;28;20424;-73
2022/04/17 01:04:16;;;;;;;15.32;8.50;;;6.60;99.90;;;;;;4992078;28;20064;-73
2022/04/17 01:06:42;;;;;;;13.60;8.63;;;6.50;99.90;;;;;;4996866;28;20064;-73
2022/04/17 01:09:08;;;;;;;11.95;7.93;;;6.40;99.90;;;;;;5012031;28;20049;-73
2022/04/17 01:11:39;;;;;;;12.70;8.57;;;6.40;99.90;;;;;;5008271;28;20060;-74
2022/04/17 01:14:07;;;;;;;12.50;8.38;;;6.50;99.90;;;;;;4993276;28;20109;-74
2022/04/17 01:16:35;;;;;;;12.57;8.65;;;6.40;99.90;;;;;;5007856;28;20491;-73
2022/04/17 01:19:14;;;;;;;14.65;9.38;;;6.30;99.90;;;;;;5012395;28;20963;-73
2022/04/17 01:21:42;;;;;;;13.68;8.70;;;6.50;99.90;;;;;;4990850;28;20403;-73
2022/04/17 01:27:01;;;;;;;11.93;8.43;;;6.40;99.90;;;;;;4990364;28;20060;-73
2022/04/17 01:29:36;;;;;;;13.15;8.65;;;6.40;99.90;;;;;;5010345;28;20780;-74
2022/04/17 01:32:04;;;;;;;14.32;8.55;;;6.40;99.90;;;;;;5008142;28;20053;-73
2022/04/17 01:34:29;;;;;;;12.43;8.45;;;6.40;99.90;;;;;;5022317;28;20148;-74
2022/04/17 01:36:56;;;;;;;12.82;8.70;;;6.30;99.90;;;;;;5011413;28;20052;-73
2022/04/17 01:39:22;;;;;;;14.48;8.43;;;6.40;99.90;;;;;;5018192;28;20076;-73
2022/04/17 01:41:50;;;;;;;12.82;8.75;;;6.30;99.90;;;;;;5024443;28;20556;-73
2022/04/17 01:44:17;;;;;;;13.57;8.65;;;6.30;99.90;;;;;;5020931;28;20124;-73
2022/04/17 01:46:44;;;;;;;12.52;8.07;;;6.30;99.90;;;;;;5027440;28;20141;-73
2022/04/17 01:49:11;;;;;;;12.30;8.15;;;6.20;99.90;;;;;;5022006;28;20486;-73
2022/04/17 01:51:38;;;;;;;15.15;9.00;;;6.30;99.90;;;;;;5024427;28;20071;-73
2022/04/17 01:54:09;;;;;;;12.80;8.73;;;6.30;99.90;;;;;;5017212;28;20042;-73
2022/04/17 01:56:36;;;;;;;14.90;8.68;;;6.10;99.90;;;;;;5023503;28;20854;-73
2022/04/17 01:59:03;;;;;;;14.65;8.80;;;6.10;99.90;;;;;;5023471;28;20451;-73
2022/04/17 02:01:28;;;;;;;14.38;8.75;;;6.10;99.90;;;;;;5007301;28;20037;-73
2022/04/17 02:03:54;;;;;;;13.00;8.70;;;6.10;99.90;;;;;;5020575;28;20049;-73
2022/04/17 02:06:20;;;;;;;15.80;9.25;;;6.00;99.90;;;;;;5028668;28;20078;-73
2022/04/17 02:08:46;;;;;;;12.70;8.55;;;5.90;99.90;;;;;;5007109;28;20459;-73
2022/04/17 02:11:12;;;;;;;12.55;8.75;;;5.80;99.90;;;;;;5026072;28;20044;-73
2022/04/17 02:13:39;;;;;;;13.98;9.23;;;5.90;99.90;;;;;;5004597;28;20052;-73
2022/04/17 02:16:05;;;;;;;15.85;9.25;;;5.80;99.90;;;;;;5002083;28;20522;-73
2022/04/17 02:18:31;;;;;;;18.00;9.07;;;5.70;99.90;;;;;;5025506;28;20049;-73
2022/04/17 02:20:57;;;;;;;14.13;8.68;;;5.70;99.90;;;;;;5011016;28;20901;-73
2022/04/17 02:23:23;;;;;;;17.98;9.27;;;5.60;99.90;;;;;;5026593;28;20454;-73
2022/04/17 02:25:48;;;;;;;14.05;9.35;;;5.40;99.90;;;;;;5005388;28;20781;-73
2022/04/17 02:28:15;;;;;;;13.48;8.05;;;5.30;99.90;;;;;;5026923;28;21186;-73
2022/04/17 02:30:40;;;;;;;12.70;8.77;;;5.30;99.90;;;;;;5014553;28;20044;-73
2022/04/17 02:33:06;;;;;;;11.75;8.23;;;5.30;99.90;;;;;;5014237;28;20041;-73
2022/04/17 02:35:32;;;;;;;12.77;9.00;;;5.40;99.90;;;;;;4993122;28;20495;-73
2022/04/17 02:37:58;;;;;;;16.20;9.38;;;5.60;99.90;;;;;;4991538;28;20796;-73
2022/04/17 02:40:24;;;;;;;14.10;8.50;;;5.70;99.90;;;;;;5009211;28;20164;-73
2022/04/17 02:42:53;;;;;;;12.70;8.65;;;5.70;99.90;;;;;;5009462;28;20052;-73
2022/04/17 02:45:22;;;;;;;13.23;8.13;;;5.50;99.90;;;;;;5008347;28;20205;-73
2022/04/17 02:47:50;;;;;;;14.27;8.18;;;5.40;99.90;;;;;;5006720;28;20055;-73
2022/04/17 02:50:18;;;;;;;12.68;8.35;;;5.20;99.90;;;;;;5012991;28;20558;-73
2022/04/17 02:52:45;;;;;;;14.55;8.38;;;5.20;99.90;;;;;;5005947;28;20051;-73
2022/04/17 02:55:12;;;;;;;19.92;8.50;;;5.10;99.90;;;;;;5006575;28;20040;-73
2022/04/17 02:57:38;;;;;;;14.13;9.02;;;5.00;99.90;;;;;;5015572;28;20041;-73
2022/04/17 03:00:06;;;;;;;13.88;9.02;;;5.00;99.90;;;;;;5016163;28;20117;-73
2022/04/17 03:05:39;;;;;;;13.52;8.25;;;5.30;99.90;;;;;;5006912;28;20063;-73
2022/04/17 03:08:11;;;;;;;13.65;8.65;;;5.30;99.90;;;;;;5008754;28;20057;-73
2022/04/17 03:10:47;;;;;;;12.77;7.97;;;5.30;99.90;;;;;;4983779;28;20045;-73
2022/04/17 03:13:14;;;;;;;12.57;8.40;;;5.30;99.90;;;;;;5027916;28;20580;-73
2022/04/17 03:15:40;;;;;;;13.02;8.40;;;5.30;99.90;;;;;;5030827;28;20056;-73
2022/04/17 03:18:08;;;;;;;12.70;8.55;;;5.30;99.90;;;;;;4999212;28;20055;-73
2022/04/17 03:20:34;;;;;;;12.23;8.27;;;5.30;99.90;;;;;;5024036;28;20127;-73
2022/04/17 03:23:00;;;;;;;13.07;9.35;;;5.20;99.90;;;;;;5027823;28;20040;-73
2022/04/17 03:25:26;;;;;;;13.93;9.02;;;5.10;99.90;;;;;;5028984;28;20048;-73
2022/04/17 03:27:53;;;;;;;13.77;8.52;;;5.20;99.90;;;;;;5019455;28;20053;-73
2022/04/17 03:30:19;;;;;;;12.32;8.05;;;5.20;99.90;;;;;;5005510;28;20746;-73
2022/04/17 03:32:47;;;;;;;12.18;8.48;;;5.20;99.90;;;;;;5020664;28;20041;-73
2022/04/17 03:35:14;;;;;;;13.80;9.02;;;5.20;99.90;;;;;;5026651;28;20122;-73
2022/04/17 03:37:44;;;;;;;13.77;9.05;;;5.10;99.90;;;;;;5008391;28;20088;-73
2022/04/17 03:40:12;;;;;;;13.50;8.27;;;5.20;99.90;;;;;;5012537;28;20550;-73
2022/04/17 03:42:39;;;;;;;12.60;8.57;;;5.20;99.90;;;;;;5025677;28;20098;-73
2022/04/17 03:45:07;;;;;;;12.02;7.90;;;5.30;99.90;;;;;;5010465;28;20049;-73
2022/04/17 03:47:33;;;;;;;13.95;8.68;;;5.30;99.90;;;;;;5028784;28;20562;-73
2022/04/17 03:49:59;;;;;;;13.07;8.38;;;5.30;99.90;;;;;;5012016;28;20052;-73
2022/04/17 03:52:25;;;;;;;13.45;8.45;;;5.20;99.90;;;;;;5030808;28;20495;-73
2022/04/17 03:54:51;;;;;;;17.10;9.35;;;4.90;99.90;;;;;;5027344;28;20864;-73
2022/04/17 03:57:17;;;;;;;12.98;8.88;;;4.70;99.90;;;;;;5028333;28;20041;-73
2022/04/17 03:59:43;;;;;;;12.45;8.63;;;4.60;99.90;;;;;;5009870;28;20045;-73
2022/04/17 04:02:08;;;;;;;15.10;8.95;;;4.60;99.90;;;;;;5009767;28;20829;-73
2022/04/17 04:04:36;;;;;;;15.18;9.23;;;4.80;99.90;;;;;;5012431;28;20057;-73
2022/04/17 04:07:02;;;;;;;16.92;8.48;;;5.00;99.90;;;;;;5012585;28;20044;-73
2022/04/17 04:09:28;;;;;;;12.38;8.43;;;5.00;99.90;;;;;;5009354;28;20051;-73
2022/04/17 04:11:54;;;;;;;13.63;9.23;;;5.00;99.90;;;;;;4975747;28;20048;-73
2022/04/17 04:14:19;;;;;;;27.88;9.23;;;5.10;99.90;;;;;;5033549;28;20043;-73
2022/04/17 04:16:45;;;;;;;15.68;8.93;;;5.00;99.90;;;;;;5005259;28;20152;-73
2022/04/17 04:19:13;;;;;;;13.20;9.02;;;4.70;99.90;;;;;;5009840;28;20055;-73
2022/04/17 04:21:49;;;;;;;12.50;7.82;;;4.90;99.90;;;;;;5007660;28;20138;-73
2022/04/17 04:24:16;;;;;;;17.63;8.95;;;4.80;99.90;;;;;;5017846;28;20056;-74
2022/04/17 04:28:32;;;;;;;15.85;9.07;;;4.60;99.90;;;;;;5026906;28;20114;-73
2022/04/17 04:29:32;;;;;;;13.30;9.07;;;4.60;99.90;;;;;;4994892;28;20175;-73
2022/04/17 04:31:58;;;;;;;12.98;9.38;;;4.60;99.90;;;;;;5008534;28;20052;-73
2022/04/17 04:34:24;;;;;;;15.73;9.35;;;4.40;99.90;;;;;;5007541;28;20895;-73
2022/04/17 04:36:50;;;;;;;16.35;9.40;;;4.70;99.90;;;;;;5025835;28;20052;-73
2022/04/17 04:39:15;;;;;;;16.23;8.98;;;4.80;99.90;;;;;;5023592;28;21331;-73
2022/04/17 04:41:41;;;;;;;15.32;9.32;;;4.80;99.90;;;;;;5028605;28;20150;-73
2022/04/17 04:44:07;;;;;;;15.27;8.65;;;4.70;99.90;;;;;;5027723;28;20147;-73
2022/04/17 04:46:33;;;;;;;13.05;9.27;;;4.70;99.90;;;;;;5025520;28;20133;-73
2022/04/17 04:51:43;;;;;;;14.07;8.13;;;5.10;99.90;;;;;;5031264;28;20068;-73
2022/04/17 04:54:09;;;;;;;16.83;9.77;;;5.20;99.90;;;;;;5023774;28;20048;-72
2022/04/17 04:56:34;;;;;;;15.95;9.48;;;5.50;99.90;;;;;;5025780;28;20040;-73
2022/04/17 04:59:00;;;;;;;13.30;8.60;;;5.80;99.90;;;;;;5027127;28;20502;-73
2022/04/17 05:01:26;;;;;;;14.02;9.00;;;5.90;99.90;;;;;;5015386;28;20601;-73
2022/04/17 05:03:52;;;;;;;12.80;8.75;;;6.40;99.90;;;;;;5021359;28;20037;-73
2022/04/17 05:06:18;;;;;;;16.73;9.40;;;6.90;99.90;;;;;;5023304;28;20181;-73
2022/04/17 05:08:43;;;;;;;14.63;9.07;;;7.00;99.90;;;;;;5024414;28;22113;-73
2022/04/17 05:11:09;;;;;;;13.65;9.38;;;7.30;99.90;;;;;;5025338;28;20050;-73
2022/04/17 05:13:35;;;;;;;14.50;9.20;;;7.80;99.90;;;;;;5024872;28;20488;-74
2022/04/17 05:16:02;;;;;;;11.93;8.70;;;7.80;99.90;;;;;;5021501;28;20539;-73
2022/04/17 05:18:28;;;;;;;12.48;9.15;;;7.90;99.90;;;;;;5006925;28;20568;-74
2022/04/17 05:20:55;;;;;;;14.43;9.32;;;8.50;99.90;;;;;;5026723;28;20037;-74
2022/04/17 05:23:30;;;;;;;13.15;8.98;;;8.40;99.90;;;;;;5024798;28;20126;-74
2022/04/17 05:26:01;;;;;;;15.15;9.15;;;8.40;99.90;;;;;;5024975;28;20644;-73
2022/04/17 05:28:28;;;;;;;14.60;9.02;;;8.70;99.90;;;;;;5013567;28;20051;-74
2022/04/17 05:30:54;;;;;;;12.82;9.23;;;8.80;99.90;;;;;;5004987;28;20938;-74
2022/04/17 05:33:21;;;;;;;13.68;9.00;;;8.90;99.90;;;;;;5022376;28;20083;-74
2022/04/17 05:35:48;;;;;;;20.20;9.43;;;9.00;99.90;;;;;;5025880;28;20044;-73
2022/04/17 05:38:15;;;;;;;12.65;8.85;;;9.30;99.90;;;;;;5022722;28;20191;-74
2022/04/17 05:40:48;;;;;;;18.67;8.93;;;9.20;99.90;;;;;;5008068;28;20072;-74
2022/04/17 05:43:14;;;;;;;12.93;9.07;;;9.30;99.70;;;;;;5024105;28;20968;-73
2022/04/17 05:45:41;;;;;;;17.02;9.40;;;9.30;99.90;;;;;;5032304;28;20306;-74
2022/04/17 05:48:11;;;;;;;15.02;9.05;;;9.20;99.90;;;;;;5022918;28;20151;-74
2022/04/17 05:50:37;;;;;;;14.45;9.07;;;8.90;99.90;;;;;;5030718;28;20048;-74
2022/04/17 05:53:04;;;;;;;16.50;9.25;;;7.60;99.90;;;;;;5029066;28;20051;-74
2022/04/17 05:55:31;;;;;;;16.50;9.63;;;7.60;99.90;;;;;;5011902;28;20051;-74
2022/04/17 05:57:57;;;;;;;14.75;10.13;;;7.60;99.90;;;;;;5022128;28;20041;-74
2022/04/17 06:00:24;;;;;;;14.38;9.20;;;7.90;99.90;;;;;;5024236;28;20550;-73
2022/04/17 06:02:49;;;;;;;13.95;8.77;;;8.20;99.90;;;;;;5009111;28;20114;-74
2022/04/17 06:05:20;;;;;;;13.77;9.35;;;7.60;99.90;;;;;;5018858;28;20033;-74
2022/04/17 06:07:46;;;;;;;59.25;12.02;;;7.60;99.90;;;;;;5005097;28;20061;-74
2022/04/17 06:10:13;;;;;;;12.82;9.32;;;8.70;99.90;;;;;;4997684;28;20766;-73
2022/04/17 06:12:40;;;;;;;17.50;9.88;;;8.10;99.90;;;;;;5026757;28;20112;-73
2022/04/17 06:15:07;;;;;;;13.40;9.77;;;8.50;99.90;;;;;;5004560;28;20041;-74
2022/04/17 06:17:40;;;;;;;30.67;10.50;;;8.10;99.90;;;;;;5023793;28;20040;-73
2022/04/17 06:20:08;;;;;;;18.15;9.13;;;9.30;99.90;;;;;;5028075;28;20079;-74
2022/04/17 06:22:35;;;;;;;27.08;10.30;;;9.30;99.90;;;;;;5023343;28;20115;-74
2022/04/17 06:25:09;;;;;;;39.50;11.30;;;9.60;99.90;;;;;;5014212;28;20261;-73
2022/04/17 06:27:46;;;;;;;20.80;9.10;;;10.20;99.90;;;;;;5021500;28;20048;-74
2022/04/17 06:30:20;;;;;;;15.82;9.20;;;10.10;99.90;;;;;;5025790;28;20048;-73
2022/04/17 06:32:47;;;;;;;14.23;9.50;;;9.60;99.90;;;;;;5011419;28;20438;-74
2022/04/17 06:35:14;;;;;;;14.60;9.50;;;9.50;99.90;;;;;;5029621;28;20052;-74
2022/04/17 06:38:00;;;;;;;35.38;10.43;;;9.60;99.90;;;;;;5026405;28;20053;-74
2022/04/17 06:40:36;;;;;;;15.38;9.85;;;10.10;99.90;;;;;;5030652;28;20056;-74
2022/04/17 06:43:05;;;;;;;16.83;10.00;;;10.50;99.90;;;;;;5032426;28;20040;-73
2022/04/17 06:45:33;;;;;;;16.30;10.02;;;10.00;99.90;;;;;;5033046;28;20045;-74
2022/04/17 06:48:14;;;;;;;32.30;10.77;;;10.00;99.90;;;;;;5010922;28;20049;-74
2022/04/17 06:50:40;;;;;;;17.70;10.60;;;9.80;99.90;;;;;;5032505;28;20076;-75
2022/04/17 06:53:06;;;;;;;16.90;10.45;;;10.40;99.90;;;;;;5007975;28;20392;-74
2022/04/17 06:55:32;;;;;;;18.65;10.02;;;11.00;99.90;;;;;;5029449;28;20590;-74
2022/04/17 06:57:58;;;;;;;18.83;10.25;;;11.20;99.90;;;;;;5026798;28;20445;-74
2022/04/17 07:00:24;;;;;;;22.48;10.50;;;11.10;98.00;;;;;;5008293;28;20654;-74
2022/04/17 07:02:50;;;;;;;21.58;10.23;;;11.50;99.90;;;;;;5024519;28;21314;-74
2022/04/17 07:05:16;;;;;;;12.85;8.75;;;10.70;97.80;;;;;;5007083;28;20053;-74
2022/04/17 07:07:42;;;;;;;19.63;9.73;;;10.90;99.90;;;;;;5010223;28;20051;-74
2022/04/17 07:10:09;;;;;;;15.68;9.73;;;11.70;99.90;;;;;;5027741;28;20043;-75
2022/04/17 07:12:35;;;;;;;13.82;9.23;;;10.80;93.60;;;;;;5025514;28;21034;-74
2022/04/17 07:15:02;;;;;;;25.45;10.05;;;10.50;99.90;;;;;;5007219;28;20048;-74
2022/04/17 07:17:35;;;;;;;19.65;9.32;;;11.50;99.90;;;;;;5027703;28;20053;-75
2022/04/17 07:20:05;;;;;;;21.50;9.85;;;12.10;99.90;;;;;;5008548;28;20040;-74
2022/04/17 07:22:31;;;;;;;17.88;9.45;;;11.80;99.90;;;;;;5026788;28;20048;-75
2022/04/17 07:25:00;;;;;;;18.73;8.93;;;12.20;96.20;;;;;;5024661;28;20052;-74
2022/04/17 07:27:26;;;;;;;21.38;9.50;;;12.40;98.20;;;;;;5006746;28;20049;-74
2022/04/17 07:29:52;;;;;;;14.00;8.98;;;11.80;95.60;;;;;;5024009;28;20045;-75
2022/04/17 07:32:19;;;;;;;16.92;8.70;;;12.20;91.00;;;;;;5023798;28;20394;-75
2022/04/17 07:34:45;;;;;;;11.30;8.60;;;12.60;98.80;;;;;;5024991;28;20094;-75
2022/04/17 07:37:12;;;;;;;14.13;8.20;;;12.30;78.80;;;;;;5023752;28;20064;-74
2022/04/17 07:39:38;;;;;;;17.80;8.73;;;12.40;92.40;;;;;;5029397;28;20645;-75
2022/04/17 07:42:04;;;;;;;11.60;8.20;;;12.20;94.20;;;;;;5025668;28;20468;-75
2022/04/17 07:44:32;;;;;;;12.15;8.35;;;13.10;93.30;;;;;;5013315;28;20051;-75
2022/04/17 07:46:58;;;;;;;15.02;8.02;;;13.50;92.60;;;;;;5010884;28;20049;-74
2022/04/17 07:49:26;;;;;;;12.73;8.02;;;13.20;93.10;;;;;;5008789;28;20052;-75
2022/04/17 07:51:54;;;;;;;11.43;8.02;;;13.70;86.30;;;;;;5020284;28;20147;-74
2022/04/17 07:54:21;;;;;;;11.65;7.88;;;13.70;79.10;;;;;;5005867;28;20812;-75
2022/04/17 07:56:46;;;;;;;14.00;8.10;;;13.80;85.60;;;;;;5027202;28;20071;-75
2022/04/17 07:59:12;;;;;;;11.60;7.70;;;13.90;78.50;;;;;;5022142;28;20407;-75
2022/04/17 08:01:40;;;;;;;12.80;7.47;;;13.00;75.50;;;;;;5025962;28;20040;-75
2022/04/17 08:04:06;;;;;;;11.82;7.50;;;14.00;79.30;;;;;;5023062;28;20056;-75
2022/04/17 08:06:32;;;;;;;12.13;7.18;;;14.30;77.80;;;;;;5018575;28;20045;-75
2022/04/17 08:08:58;;;;;;;11.52;6.97;;;13.30;79.20;;;;;;5003106;28;22811;-75
2022/04/17 08:11:25;;;;;;;13.15;7.30;;;14.10;79.40;;;;;;5018073;28;20057;-75
2022/04/17 08:13:51;;;;;;;11.10;7.30;;;13.90;71.40;;;;;;5025841;28;20057;-75
2022/04/17 08:16:19;;;;;;;11.32;6.93;;;14.40;80.00;;;;;;5009001;28;20121;-75
2022/04/17 08:18:45;;;;;;;12.57;7.43;;;14.30;73.40;;;;;;5004547;28;20056;-75
2022/04/17 08:21:11;;;;;;;9.77;5.90;;;14.00;72.40;;;;;;5025215;28;20040;-75
2022/04/17 08:23:37;;;;;;;13.75;6.63;;;13.70;67.40;;;;;;5018513;28;20084;-75
2022/04/17 08:26:05;;;;;;;9.40;6.05;;;14.30;75.80;;;;;;5006789;28;20051;-75
2022/04/17 08:28:31;;;;;;;9.32;6.38;;;14.70;71.60;;;;;;5025539;28;20044;-75
2022/04/17 08:30:57;;;;;;;9.88;6.13;;;14.40;74.50;;;;;;5023337;28;20048;-75
2022/04/17 08:33:24;;;;;;;9.07;6.15;;;15.10;73.30;;;;;;5020640;28;20033;-76
2022/04/17 08:35:50;;;;;;;11.27;6.22;;;14.20;66.60;;;;;;5011604;28;20609;-75
2022/04/17 08:38:19;;;;;;;9.85;6.13;;;15.00;69.90;;;;;;5020526;28;20055;-75
2022/04/17 08:40:45;;;;;;;10.50;6.03;;;14.10;74.40;;;;;;5028007;28;20135;-75
2022/04/17 08:43:11;;;;;;;9.98;6.72;;;15.20;72.60;;;;;;5020937;28;20136;-75
2022/04/17 08:45:37;;;;;;;10.43;6.50;;;15.00;71.60;;;;;;5018899;28;20055;-75
2022/04/17 08:48:04;;;;;;;9.40;6.13;;;15.60;68.60;;;;;;4963838;28;20044;-75
2022/04/17 08:50:31;;;;;;;12.65;6.20;;;15.60;68.90;;;;;;4995006;28;20063;-75
2022/04/17 08:52:59;;;;;;;9.20;6.20;;;15.90;69.90;;;;;;5023388;28;20044;-74
2022/04/17 08:55:25;;;;;;;10.38;6.68;;;15.60;66.10;;;;;;4995097;28;20927;-75
2022/04/17 08:57:51;;;;;;;10.80;6.47;;;15.10;72.60;;;;;;5011461;28;20051;-75
2022/04/17 09:00:17;;;;;;;10.40;6.65;;;14.70;65.80;;;;;;4994366;28;20045;-75
2022/04/17 09:02:44;;;;;;;11.48;5.93;;;14.50;73.00;;;;;;5018010;28;20052;-75
2022/04/17 09:05:12;;;;;;;8.98;5.57;;;15.50;70.70;;;;;;5011848;28;20045;-75
2022/04/17 09:07:47;;;;;;;10.68;6.45;;;16.00;71.00;;;;;;4999242;28;20299;-75
2022/04/17 09:10:27;;;;;;;9.52;6.07;;;15.60;63.30;;;;;;4982413;28;20123;-75
2022/04/17 09:12:54;;;;;;;9.52;5.82;;;14.90;65.00;;;;;;5018131;28;20048;-74
2022/04/17 09:15:34;;;;;;;11.50;6.35;;;16.00;70.40;;;;;;5007671;28;20566;-75
2022/04/17 09:18:00;;;;;;;9.73;5.85;;;16.60;70.10;;;;;;5016159;28;20080;-75
2022/04/17 09:20:27;;;;;;;8.13;5.30;;;16.80;69.10;;;;;;4995622;28;20124;-75
2022/04/17 09:22:55;;;;;;;8.25;5.35;;;17.10;66.40;;;;;;4998842;28;20041;-75
2022/04/17 09:25:28;;;;;;;8.63;5.38;;;17.30;64.50;;;;;;4971493;28;20068;-75
2022/04/17 09:28:07;;;;;;;8.25;5.68;;;17.30;66.30;;;;;;5016133;28;20052;-75
2022/04/17 09:30:39;;;;;;;7.85;5.55;;;17.40;63.50;;;;;;5014793;28;20163;-76
2022/04/17 09:33:13;;;;;;;10.43;5.70;;;16.90;68.10;;;;;;5017891;28;20519;-74
2022/04/17 09:35:39;;;;;;;10.13;5.72;;;17.60;68.10;;;;;;5020823;28;20094;-76
2022/04/17 09:38:09;;;;;;;9.25;5.80;;;17.80;66.50;;;;;;5017635;28;20100;-75
2022/04/17 09:40:36;;;;;;;9.20;5.38;;;17.80;60.60;;;;;;5013873;28;20052;-75
2022/04/17 09:43:12;;;;;;;12.13;6.07;;;17.40;60.20;;;;;;5014944;28;20585;-76
2022/04/17 09:46:00;;;;;;;27.05;6.80;;;17.50;65.60;;;;;;5009710;28;20052;-75
2022/04/17 09:48:35;;;;;;;11.88;6.22;;;17.00;61.80;;;;;;4992795;28;20068;-76
2022/04/17 09:51:22;;;;;;;9.73;5.90;;;15.80;57.00;;;;;;4998660;28;20072;-75
2022/04/17 09:54:05;;;;;;;19.80;5.78;;;16.20;60.20;;;;;;4998100;28;20051;-75
2022/04/17 09:56:32;;;;;;;11.15;5.65;;;17.40;64.90;;;;;;5017516;28;20073;-76
2022/04/17 09:59:00;;;;;;;9.52;5.78;;;18.00;63.80;;;;;;5027210;28;20049;-75
2022/04/17 10:01:27;;;;;;;42.22;7.60;;;17.80;64.30;;;;;;5027683;28;20049;-75
2022/04/17 10:03:55;;;;;;;16.73;5.82;;;18.00;62.80;;;;;;5012955;28;20059;-75
2022/04/17 10:06:23;;;;;;;17.08;5.82;;;16.50;58.60;;;;;;5027976;28;20048;-76
2022/04/17 10:08:51;;;;;;;9.43;5.35;;;17.90;63.10;;;;;;5026879;28;20661;-75
2022/04/17 10:11:18;;;;;;;8.00;5.00;;;17.80;62.90;;;;;;5023854;28;20045;-75
2022/04/17 10:13:45;;;;;;;11.10;5.30;;;18.00;61.70;;;;;;5008175;28;22435;-75
2022/04/17 10:16:13;;;;;;;9.32;5.30;;;18.30;62.60;;;;;;5021929;28;20165;-75
2022/04/17 10:18:44;;;;;;;8.68;5.28;;;17.80;53.90;;;;;;5028709;28;20036;-75
2022/04/17 10:21:12;;;;;;;8.23;5.10;;;18.20;64.10;;;;;;5009362;28;20048;-76
2022/04/17 10:23:43;;;;;;;8.98;4.88;;;18.20;62.60;;;;;;4989232;28;20060;-76
2022/04/17 10:26:13;;;;;;;8.40;4.65;;;17.90;58.30;;;;;;5018399;28;20869;-75
2022/04/17 10:28:44;;;;;;;7.95;4.60;;;17.80;59.60;;;;;;5005333;28;20143;-76
2022/04/17 10:31:17;;;;;;;8.23;4.55;;;17.10;58.60;;;;;;5022578;28;20551;-75
2022/04/17 10:33:52;;;;;;;7.78;4.50;;;16.40;60.10;;;;;;5022346;28;20594;-75
2022/04/17 10:36:59;;;;;;;7.95;4.13;;;16.70;60.30;;;;;;5024703;28;20868;-76
2022/04/17 10:39:33;;;;;;;7.30;4.30;;;18.00;59.00;;;;;;5023077;28;20084;-76
2022/04/17 10:41:59;;;;;;;6.70;3.88;;;18.20;59.20;;;;;;5025737;28;20136;-76
2022/04/17 10:44:31;;;;;;;7.40;3.97;;;16.80;58.80;;;;;;5019312;28;20496;-76
2022/04/17 10:46:56;;;;;;;8.38;4.50;;;16.30;54.90;;;;;;5008811;28;20053;-75
2022/04/17 10:49:27;;;;;;;7.00;4.10;;;17.20;56.00;;;;;;4999322;28;20582;-76
2022/04/17 10:51:57;;;;;;;7.68;4.38;;;17.50;58.80;;;;;;5022683;28;20052;-76
2022/04/17 10:54:24;;;;;;;7.57;4.20;;;18.20;58.40;;;;;;5018149;28;20155;-76
2022/04/17 10:56:53;;;;;;;8.38;4.60;;;18.30;58.40;;;;;;4997879;28;20056;-76
2022/04/17 10:59:21;;;;;;;13.13;4.95;;;17.70;58.50;;;;;;5024053;28;20106;-76
2022/04/17 11:01:54;;;;;;;8.15;4.60;;;18.40;57.70;;;;;;5008859;28;20049;-76
2022/04/17 11:04:27;;;;;;;8.80;4.20;;;18.70;56.40;;;;;;4990440;28;20884;-76
2022/04/17 11:07:06;;;;;;;8.65;4.70;;;18.50;56.50;;;;;;5013535;28;20083;-76
2022/04/17 11:09:39;;;;;;;8.25;4.68;;;19.00;54.60;;;;;;5020790;28;20699;-76
2022/04/17 11:12:17;;;;;;;8.38;4.43;;;19.00;56.30;;;;;;5017238;28;20044;-76
2022/04/17 11:14:53;;;;;;;7.28;4.68;;;18.80;51.20;;;;;;5009396;28;20059;-76
2022/04/17 11:17:21;;;;;;;14.27;5.57;;;19.20;57.70;;;;;;5022529;28;20834;-76
2022/04/17 11:19:48;;;;;;;8.48;4.70;;;19.30;56.00;;;;;;5023682;28;20408;-76
2022/04/17 11:22:16;;;;;;;6.78;4.43;;;18.30;55.00;;;;;;5026068;28;20110;-76
2022/04/17 11:24:55;;;;;;;9.80;4.45;;;17.20;51.90;;;;;;5009529;28;20099;-76
2022/04/17 11:27:41;;;;;;;9.48;4.60;;;18.70;57.80;;;;;;5022244;28;20048;-76
2022/04/17 11:30:13;;;;;;;9.38;4.90;;;19.20;56.70;;;;;;5024568;28;20071;-76
2022/04/17 11:32:39;;;;;;;8.27;4.90;;;17.80;52.40;;;;;;5024086;28;20045;-76
2022/04/17 11:35:06;;;;;;;8.13;4.88;;;16.90;53.00;;;;;;5022708;28;20509;-76
2022/04/17 11:37:33;;;;;;;8.02;4.80;;;17.90;55.70;;;;;;5019749;28;20062;-77
2022/04/17 11:40:10;;;;;;;7.40;4.43;;;18.70;56.60;;;;;;5026857;28;20056;-76
2022/04/17 11:42:44;;;;;;;6.93;4.18;;;18.80;54.70;;;;;;5006955;28;20053;-76
2022/04/17 11:45:12;;;;;;;9.07;4.65;;;17.80;54.50;;;;;;5003521;28;20053;-76
2022/04/17 11:47:41;;;;;;;8.32;4.38;;;17.60;55.60;;;;;;5026899;28;20564;-76
2022/04/17 11:50:11;;;;;;;7.63;4.38;;;18.20;56.00;;;;;;5007154;28;20092;-76
2022/04/17 11:52:37;;;;;;;13.60;4.80;;;18.30;51.80;;;;;;5024588;28;20044;-76
2022/04/17 11:55:05;;;;;;;7.07;4.45;;;17.20;53.50;;;;;;5023846;28;20049;-76
2022/04/17 11:57:32;;;;;;;7.53;4.40;;;17.60;54.40;;;;;;5024437;28;21004;-76
2022/04/17 11:59:58;;;;;;;11.60;4.97;;;18.40;53.00;;;;;;5008119;28;20047;-77
2022/04/17 12:02:26;;;;;;;7.60;4.78;;;18.50;55.30;;;;;;5017803;28;20779;-76
2022/04/17 12:04:55;;;;;;;6.55;3.78;;;19.10;56.50;;;;;;5029665;28;20128;-76
2022/04/17 12:07:23;;;;;;;8.07;4.25;;;19.00;47.70;;;;;;5023441;28;20537;-77
2022/04/17 12:09:49;;;;;;;9.45;4.90;;;18.90;52.60;;;;;;5023879;28;20189;-76
2022/04/17 12:12:18;;;;;;;7.32;4.03;;;18.30;50.70;;;;;;5023298;28;20056;-76
2022/04/17 12:14:45;;;;;;;8.25;4.35;;;18.70;52.90;;;;;;5026004;28;20045;-76
2022/04/17 12:17:12;;;;;;;7.68;4.50;;;17.00;45.50;;;;;;5021853;28;20234;-76
2022/04/17 12:19:38;;;;;;;9.40;4.60;;;17.10;49.80;;;;;;5028509;28;20047;-76
2022/04/17 12:22:14;;;;;;;8.27;4.40;;;17.60;52.50;;;;;;5007385;28;20855;-77
2022/04/17 12:24:44;;;;;;;7.05;4.15;;;18.60;53.50;;;;;;5006807;28;20048;-76
2022/04/17 12:27:19;;;;;;;7.63;4.07;;;18.00;49.80;;;;;;4994055;28;20055;-76
2022/04/17 12:29:56;;;;;;;7.97;4.20;;;18.20;53.20;;;;;;5021288;28;20064;-76
2022/04/17 12:32:24;;;;;;;8.60;3.83;;;18.90;47.70;;;;;;5006041;28;20462;-77
2022/04/17 12:34:58;;;;;;;7.53;3.95;;;19.30;52.60;;;;;;5003527;28;20452;-77
2022/04/17 12:37:29;;;;;;;7.38;4.40;;;18.50;50.80;;;;;;5022882;28;20123;-76
2022/04/17 12:40:17;;;;;;;6.43;3.90;;;17.60;45.10;;;;;;5025464;28;20123;-77
2022/04/17 12:42:44;;;;;;;7.20;4.45;;;18.40;51.50;;;;;;5027033;28;20482;-76
2022/04/17 12:45:21;;;;;;;6.78;4.10;;;17.70;46.10;;;;;;5025014;28;20576;-77
2022/04/17 12:48:09;;;;;;;11.13;4.57;;;18.00;52.10;;;;;;4993669;28;20060;-77
2022/04/17 12:50:35;;;;;;;7.75;4.53;;;18.90;54.30;;;;;;5007489;28;20055;-76
2022/04/17 12:53:04;;;;;;;13.93;4.88;;;18.90;53.60;;;;;;5025694;28;20114;-77
2022/04/17 12:55:38;;;;;;;8.63;4.65;;;19.50;51.60;;;;;;5024694;28;20052;-77
2022/04/17 12:58:03;;;;;;;7.90;4.50;;;19.30;50.30;;;;;;5010819;28;20052;-77